Time;durP1;ratioP1;P1;durP2;ratioP2;P2;SDS_P1;SDS_P2;PMS_P1;PMS_P2;Temp;Humidity;BMP_temperature;BMP_pressure;BME280_temperature;BME280_humidity;BME280_pressure;Samples;Min_cycle;Max_cycle;Signal;HPM_P1;HPM_P2
2021/10/22 00:01:43;;;;;;;0.57;0.57;;;;;;;7.51;63.74;98034.00;6366420;28;20233;-73
2021/10/22 00:04:48;;;;;;;0.50;0.50;;;;;;;7.40;63.25;98037.75;6366639;28;20201;-72
2021/10/22 00:07:57;;;;;;;0.45;0.45;;;;;;;7.29;61.41;98038.75;6365910;28;20371;-72
2021/10/22 00:11:01;;;;;;;0.60;0.60;;;;;;;7.38;62.91;98045.34;6365916;28;20487;-72
2021/10/22 00:14:06;;;;;;;1.50;0.50;;;;;;;7.03;61.48;98058.69;6366557;28;20186;-72
2021/10/22 00:17:11;;;;;;;0.60;0.60;;;;;;;7.16;63.78;98046.56;6366671;28;20270;-72
2021/10/22 00:20:16;;;;;;;0.47;0.47;;;;;;;7.00;63.18;98053.78;6367218;28;20189;-72
2021/10/22 00:23:21;;;;;;;0.57;0.57;;;;;;;7.08;62.77;98050.59;6367272;28;20248;-73
2021/10/22 00:26:26;;;;;;;0.60;0.50;;;;;;;7.13;62.74;98045.22;6366608;28;20182;-72
2021/10/22 00:29:30;;;;;;;0.50;0.50;;;;;;;7.05;62.48;98051.13;6365500;28;20205;-73
2021/10/22 00:32:35;;;;;;;0.90;0.90;;;;;;;7.03;63.11;98064.13;6366056;28;20218;-72
2021/10/22 00:35:41;;;;;;;0.60;0.60;;;;;;;6.87;61.76;98062.38;6366678;28;20246;-72
2021/10/22 00:38:46;;;;;;;0.50;0.50;;;;;;;6.93;61.18;98074.88;6366322;28;20249;-73
2021/10/22 00:41:52;;;;;;;0.93;0.60;;;;;;;7.02;61.28;98075.19;6365801;28;20281;-73
2021/10/22 00:44:57;;;;;;;2.33;0.60;;;;;;;6.88;61.75;98086.47;6366452;28;20253;-72
2021/10/22 00:48:02;;;;;;;0.53;0.53;;;;;;;6.97;61.67;98086.84;6365359;28;20328;-72
2021/10/22 00:51:10;;;;;;;0.97;0.57;;;;;;;6.82;60.71;98095.66;6364333;28;20485;-72
2021/10/22 00:54:16;;;;;;;0.50;0.50;;;;;;;6.77;61.64;98100.22;6365674;28;20226;-72
2021/10/22 00:57:20;;;;;;;0.60;0.60;;;;;;;6.90;62.44;98091.66;6365709;28;20218;-72
2021/10/22 01:00:24;;;;;;;1.50;0.60;;;;;;;6.91;61.19;98093.28;6364880;28;20424;-73
2021/10/22 01:03:28;;;;;;;0.60;0.60;;;;;;;6.92;62.25;98105.75;6365322;28;20213;-73
2021/10/22 01:06:32;;;;;;;1.77;0.70;;;;;;;6.86;61.68;98109.50;6364695;28;20221;-73
2021/10/22 01:09:39;;;;;;;0.80;0.80;;;;;;;6.71;60.71;98114.78;6365848;28;20190;-72
2021/10/22 01:12:44;;;;;;;0.70;0.70;;;;;;;6.78;61.20;98127.06;6365707;28;20266;-72
2021/10/22 01:15:49;;;;;;;0.97;0.50;;;;;;;6.75;61.31;98132.19;6362628;28;20303;-73
2021/10/22 01:18:53;;;;;;;1.03;0.70;;;;;;;6.80;61.61;98124.94;6339053;28;20252;-73
2021/10/22 01:21:59;;;;;;;0.60;0.60;;;;;;;6.70;61.49;98132.94;6340018;28;20241;-72
2021/10/22 01:25:05;;;;;;;2.13;0.80;;;;;;;6.64;61.03;98135.88;6339715;28;20205;-73
2021/10/22 01:28:11;;;;;;;1.40;0.67;;;;;;;6.65;61.57;98132.09;6339833;28;20185;-72
2021/10/22 01:31:15;;;;;;;0.60;0.60;;;;;;;6.71;61.56;98141.88;6338479;28;20368;-72
2021/10/22 01:34:20;;;;;;;2.87;0.70;;;;;;;6.72;60.83;98143.53;6339670;28;20224;-72
2021/10/22 01:37:25;;;;;;;2.27;0.80;;;;;;;6.62;60.87;98143.44;6339692;28;20186;-72
2021/10/22 01:40:30;;;;;;;4.33;0.70;;;;;;;6.69;60.50;98149.47;6338388;28;20190;-72
2021/10/22 01:43:34;;;;;;;0.70;0.70;;;;;;;6.73;61.04;98150.56;6339128;28;20216;-72
2021/10/22 01:46:38;;;;;;;0.70;0.70;;;;;;;6.65;61.53;98153.78;6340058;28;20224;-72
2021/10/22 01:49:42;;;;;;;0.60;0.60;;;;;;;6.61;61.69;98163.47;6339634;28;20246;-72
2021/10/22 01:52:48;;;;;;;0.60;0.60;;;;;;;6.59;60.68;98152.06;6338605;28;20378;-72
2021/10/22 01:55:53;;;;;;;0.70;0.70;;;;;;;6.71;60.86;98158.16;6339532;28;20224;-72
2021/10/22 01:58:58;;;;;;;0.70;0.70;;;;;;;6.55;61.28;98175.34;6339378;28;20228;-72
2021/10/22 02:02:03;;;;;;;1.13;0.70;;;;;;;6.55;61.79;98181.56;6337926;28;20254;-72
2021/10/22 02:05:10;;;;;;;0.97;0.97;;;;;;;6.66;61.91;98187.91;6338774;28;20220;-72
2021/10/22 02:08:16;;;;;;;0.60;0.60;;;;;;;6.66;62.33;98177.06;6337486;28;20477;-74
2021/10/22 02:11:20;;;;;;;0.60;0.60;;;;;;;6.53;61.36;98188.28;6338806;28;20186;-73
2021/10/22 02:14:25;;;;;;;0.60;0.60;;;;;;;6.59;62.20;98187.28;6338816;28;20187;-73
2021/10/22 02:17:29;;;;;;;0.60;0.60;;;;;;;6.59;61.38;98182.69;6350663;28;20596;-73
2021/10/22 02:20:38;;;;;;;0.80;0.60;;;;;;;6.65;60.53;98191.69;6364231;28;20219;-73
2021/10/22 02:23:43;;;;;;;0.67;0.67;;;;;;;6.48;60.67;98196.38;6364318;28;20213;-73
2021/10/22 02:26:50;;;;;;;1.20;0.80;;;;;;;6.45;61.30;98196.88;6363492;28;20182;-73
2021/10/22 02:29:54;;;;;;;2.77;0.60;;;;;;;6.42;60.16;98202.81;6369911;27;20377;-73
2021/10/22 02:32:58;;;;;;;3.00;0.60;;;;;;;6.40;61.94;98200.34;6389005;27;20255;-73
2021/10/22 02:36:04;;;;;;;0.53;0.53;;;;;;;6.47;60.55;98200.97;6389290;27;20185;-73
2021/10/22 02:39:10;;;;;;;0.50;0.50;;;;;;;6.34;60.70;98214.09;6389319;27;20229;-73
2021/10/22 02:42:14;;;;;;;0.50;0.50;;;;;;;6.31;61.51;98218.13;6387642;27;20351;-72
2021/10/22 02:45:18;;;;;;;0.63;0.63;;;;;;;6.36;60.79;98220.06;6387580;27;20523;-73
2021/10/22 02:48:23;;;;;;;0.77;0.77;;;;;;;6.29;61.43;98221.06;6388708;27;20196;-73
2021/10/22 02:51:28;;;;;;;0.60;0.60;;;;;;;6.22;59.79;98220.44;6387606;27;20516;-73
2021/10/22 02:54:34;;;;;;;0.70;0.70;;;;;;;6.34;59.91;98227.63;6387617;27;20264;-73
2021/10/22 02:57:38;;;;;;;0.97;0.60;;;;;;;6.32;61.83;98236.00;6387434;27;20522;-73
2021/10/22 03:00:42;;;;;;;5.30;0.80;;;;;;;6.39;61.05;98246.66;6388771;27;20206;-73
2021/10/22 03:03:47;;;;;;;2.77;0.60;;;;;;;6.20;60.12;98243.44;6387939;27;20504;-74
2021/10/22 03:06:51;;;;;;;2.23;0.70;;;;;;;6.32;59.03;98251.44;6387269;27;20445;-73
2021/10/22 03:09:56;;;;;;;0.77;0.77;;;;;;;6.23;60.90;98240.22;6387686;27;20199;-73
2021/10/22 03:13:01;;;;;;;0.97;0.50;;;;;;;6.40;60.33;98248.25;6387035;27;20444;-72
2021/10/22 03:16:05;;;;;;;0.63;0.63;;;;;;;6.28;59.25;98246.53;6379696;27;20275;-73
2021/10/22 03:19:11;;;;;;;0.50;0.50;;;;;;;6.17;59.36;98244.75;6357324;28;20185;-73
2021/10/22 03:22:15;;;;;;;2.13;0.60;;;;;;;6.17;59.37;98255.56;6362576;28;20188;-72
2021/10/22 03:25:21;;;;;;;0.70;0.70;;;;;;;6.20;59.98;98260.50;6361861;28;20588;-73
2021/10/22 03:28:27;;;;;;;0.53;0.50;;;;;;;6.36;60.09;98258.81;6361840;28;20222;-73
2021/10/22 03:31:32;;;;;;;0.70;0.70;;;;;;;6.19;61.39;98264.25;6361151;28;20337;-72
2021/10/22 03:34:36;;;;;;;0.70;0.70;;;;;;;6.14;59.57;98261.50;6362460;28;20266;-73
2021/10/22 03:37:41;;;;;;;0.60;0.60;;;;;;;6.12;59.16;98269.03;6361181;28;20472;-72
2021/10/22 03:40:46;;;;;;;0.70;0.70;;;;;;;6.29;59.84;98275.22;6361599;28;20196;-72
2021/10/22 03:43:50;;;;;;;1.20;0.70;;;;;;;6.03;60.60;98270.56;6362402;28;20217;-72
2021/10/22 03:46:55;;;;;;;0.60;0.60;;;;;;;6.14;58.46;98266.06;6362412;28;20193;-72
2021/10/22 03:49:59;;;;;;;0.60;0.60;;;;;;;6.09;59.37;98285.78;6362481;28;20189;-72
2021/10/22 03:53:04;;;;;;;0.60;0.60;;;;;;;6.16;59.97;98282.91;6362428;28;20190;-72
2021/10/22 03:56:13;;;;;;;0.70;0.70;;;;;;;6.07;59.56;98284.38;6361129;28;20190;-72
2021/10/22 03:59:17;;;;;;;1.13;0.70;;;;;;;6.01;60.52;98288.91;6361000;28;20473;-72
2021/10/22 04:02:21;;;;;;;0.67;0.67;;;;;;;6.20;59.34;98303.81;6360867;28;20223;-72
2021/10/22 04:05:26;;;;;;;0.60;0.60;;;;;;;6.03;59.42;98296.81;6362297;28;20280;-72
2021/10/22 04:08:30;;;;;;;0.60;0.60;;;;;;;6.02;60.79;98308.69;6360922;28;20491;-72
2021/10/22 04:11:36;;;;;;;0.60;0.60;;;;;;;6.07;59.96;98320.41;6360897;28;20358;-72
2021/10/22 04:14:41;;;;;;;0.83;0.70;;;;;;;6.08;59.87;98322.06;6360871;28;20189;-72
2021/10/22 04:17:46;;;;;;;0.97;0.70;;;;;;;6.07;59.24;98319.56;6361294;28;20430;-72
2021/10/22 04:20:50;;;;;;;0.63;0.63;;;;;;;6.02;59.79;98328.44;6360812;28;20217;-72
2021/10/22 04:23:54;;;;;;;0.60;0.60;;;;;;;6.09;60.94;98328.25;6362244;28;20216;-72
2021/10/22 04:27:00;;;;;;;0.80;0.80;;;;;;;5.99;59.24;98322.69;6366656;28;20188;-72
2021/10/22 04:30:08;;;;;;;1.50;0.73;;;;;;;6.10;58.51;98329.91;6366666;28;20252;-72
2021/10/22 04:33:15;;;;;;;0.70;0.70;;;;;;;6.15;59.23;98335.41;6366227;28;20216;-72
2021/10/22 04:36:19;;;;;;;1.53;0.73;;;;;;;6.03;59.62;98330.09;6365404;28;20197;-72
2021/10/22 04:42:48;;;;;;;0.63;0.63;;;;;;;6.06;58.51;98340.41;6364959;28;20235;-72
2021/10/22 04:45:54;;;;;;;0.70;0.70;;;;;;;6.07;60.24;98342.06;6366212;28;20245;-72
2021/10/22 04:48:58;;;;;;;1.40;0.60;;;;;;;6.03;59.41;98349.03;6366191;28;20183;-72
2021/10/22 04:52:02;;;;;;;0.70;0.70;;;;;;;5.91;58.18;98353.72;6364978;28;20186;-72
2021/10/22 04:55:09;;;;;;;3.80;0.70;;;;;;;5.97;60.31;98354.63;6365719;28;20190;-71
2021/10/22 04:58:15;;;;;;;0.60;0.60;;;;;;;6.06;58.93;98356.66;6364885;28;20480;-73
2021/10/22 05:01:35;;;;;;;0.80;0.80;;;;;;;6.00;58.60;98357.66;6365296;28;20232;-73
2021/10/22 05:04:40;;;;;;;0.63;0.63;;;;;;;5.94;57.57;98369.47;6365287;28;20209;-73
2021/10/22 05:07:44;;;;;;;0.87;0.87;;;;;;;6.05;58.32;98360.44;6364423;28;20351;-73
2021/10/22 05:10:48;;;;;;;0.60;0.60;;;;;;;5.92;58.95;98358.06;6365613;28;20223;-73
2021/10/22 05:13:54;;;;;;;0.73;0.60;;;;;;;5.77;58.50;98375.91;6365116;28;20262;-72
2021/10/22 05:16:58;;;;;;;1.80;0.97;;;;;;;5.80;59.47;98381.66;6365145;28;20235;-73
2021/10/22 05:20:05;;;;;;;3.73;0.80;;;;;;;5.97;58.07;98390.63;6364259;28;20216;-72
2021/10/22 05:23:11;;;;;;;0.77;0.77;;;;;;;5.90;58.85;98389.97;6364478;28;20252;-72
2021/10/22 05:26:15;;;;;;;0.67;0.67;;;;;;;5.83;59.59;98391.97;6364006;28;20220;-72
2021/10/22 05:29:21;;;;;;;0.60;0.60;;;;;;;5.75;59.04;98403.22;6363955;28;20365;-73
2021/10/22 05:32:25;;;;;;;0.70;0.70;;;;;;;5.88;59.03;98408.31;6364560;28;20253;-72
2021/10/22 05:35:30;;;;;;;2.27;0.67;;;;;;;5.90;58.26;98400.78;6363654;28;20189;-72
2021/10/22 05:38:34;;;;;;;1.17;0.80;;;;;;;5.80;58.38;98400.59;6363616;28;20381;-72
2021/10/22 05:41:38;;;;;;;1.50;0.60;;;;;;;5.68;59.04;98413.34;6364279;28;20239;-71
2021/10/22 05:44:44;;;;;;;0.97;0.80;;;;;;;5.78;59.27;98418.94;6363371;28;20216;-73
2021/10/22 05:47:50;;;;;;;0.70;0.70;;;;;;;5.62;58.79;98425.97;6364600;28;20216;-73
2021/10/22 05:50:55;;;;;;;0.63;0.63;;;;;;;5.61;59.42;98434.31;6363765;28;20282;-73
2021/10/22 05:53:59;;;;;;;0.60;0.60;;;;;;;5.53;59.33;98432.00;6364150;28;20231;-73
2021/10/22 05:57:04;;;;;;;0.67;0.67;;;;;;;5.57;59.15;98441.31;6364185;28;20189;-72
2021/10/22 06:00:13;;;;;;;0.97;0.70;;;;;;;5.49;60.43;98436.28;6363686;28;20208;-73
2021/10/22 06:03:18;;;;;;;0.80;0.80;;;;;;;5.58;59.38;98446.44;6362939;28;20383;-73
2021/10/22 06:06:22;;;;;;;3.10;0.70;;;;;;;5.70;58.63;98454.50;6363965;28;20239;-73
2021/10/22 06:09:26;;;;;;;3.77;0.73;;;;;;;5.67;60.14;98447.69;6363962;28;20184;-73
2021/10/22 06:12:31;;;;;;;0.60;0.60;;;;;;;5.67;58.96;98444.97;6362680;28;20194;-73
2021/10/22 06:15:37;;;;;;;0.80;0.80;;;;;;;5.81;58.26;98450.91;6363831;28;20190;-73
2021/10/22 06:18:46;;;;;;;0.70;0.70;;;;;;;5.85;59.18;98470.22;6363346;28;20235;-72
2021/10/22 06:25:09;;;;;;;3.63;1.03;;;;;;;5.75;59.18;98467.31;6360674;28;20220;-72
2021/10/22 06:28:14;;;;;;;2.73;0.80;;;;;;;5.72;58.55;98471.31;6362079;28;20478;-72
2021/10/22 06:31:20;;;;;;;1.27;0.70;;;;;;;5.77;59.27;98486.81;6362287;28;20185;-72
2021/10/22 06:34:27;;;;;;;0.70;0.70;;;;;;;5.67;60.67;98488.25;6363519;28;20222;-72
2021/10/22 06:37:31;;;;;;;0.97;0.63;;;;;;;5.81;59.67;98487.97;6363618;28;20195;-72
2021/10/22 06:40:35;;;;;;;0.60;0.60;;;;;;;5.69;59.70;98496.16;6363546;28;20191;-72
2021/10/22 06:43:41;;;;;;;0.90;0.87;;;;;;;5.62;59.81;98496.28;6362172;28;20499;-73
2021/10/22 06:46:47;;;;;;;1.50;0.67;;;;;;;5.78;59.54;98489.28;6361423;28;20446;-73
2021/10/22 06:49:51;;;;;;;0.70;0.70;;;;;;;5.66;59.34;98502.03;6363095;28;20214;-72
2021/10/22 06:52:55;;;;;;;1.20;0.70;;;;;;;5.77;59.64;98506.59;6363083;28;20193;-72
2021/10/22 06:56:00;;;;;;;2.23;0.83;;;;;;;5.77;59.75;98514.72;6363033;28;20199;-72
2021/10/22 06:59:04;;;;;;;3.80;0.70;;;;;;;5.84;59.74;98509.97;6361652;28;20476;-73
2021/10/22 07:02:10;;;;;;;1.70;0.63;;;;;;;5.60;59.52;98519.22;6363009;28;20192;-73
2021/10/22 07:05:25;;;;;;;1.13;0.80;;;;;;;5.76;60.42;98523.88;6361746;28;20235;-73
2021/10/22 07:08:29;;;;;;;0.90;0.90;;;;;;;5.66;59.71;98529.09;6361622;28;20186;-73
2021/10/22 07:11:34;;;;;;;0.67;0.67;;;;;;;5.73;60.15;98518.94;6361821;28;20473;-73
2021/10/22 07:14:47;;;;;;;0.80;0.80;;;;;;;5.77;60.25;98530.94;6362385;28;20191;-73
2021/10/22 07:17:56;;;;;;;0.93;0.77;;;;;;;5.84;59.47;98541.59;6362543;28;20237;-73
2021/10/22 07:21:00;;;;;;;0.80;0.80;;;;;;;5.86;60.98;98534.91;6362937;28;20184;-71
2021/10/22 07:24:11;;;;;;;0.70;0.70;;;;;;;5.85;60.86;98551.41;6362515;28;20192;-73
2021/10/22 07:27:16;;;;;;;0.70;0.70;;;;;;;5.87;59.88;98552.81;6362257;28;20220;-73
2021/10/22 07:30:20;;;;;;;0.90;0.80;;;;;;;5.87;59.79;98551.97;6362615;28;20184;-73
2021/10/22 07:33:27;;;;;;;3.20;0.80;;;;;;;5.89;60.84;98550.66;6362391;28;20192;-73
2021/10/22 07:36:31;;;;;;;0.70;0.70;;;;;;;5.89;60.58;98556.09;6361557;28;20189;-72
2021/10/22 07:39:41;;;;;;;4.70;0.90;;;;;;;5.96;59.90;98555.94;6361098;28;20372;-72
2021/10/22 07:42:48;;;;;;;0.80;0.80;;;;;;;5.99;59.86;98556.28;6361232;28;20526;-73
2021/10/22 07:45:52;;;;;;;0.70;0.70;;;;;;;6.00;60.10;98557.94;6362427;28;20216;-73
2021/10/22 07:48:58;;;;;;;0.93;0.80;;;;;;;6.04;60.03;98553.66;6362510;28;20195;-72
2021/10/22 07:52:02;;;;;;;0.60;0.60;;;;;;;6.14;59.55;98563.84;6361129;28;20530;-72
2021/10/22 07:55:07;;;;;;;1.07;0.60;;;;;;;6.23;59.18;98556.97;6361490;28;20185;-72
2021/10/22 07:58:13;;;;;;;1.20;0.60;;;;;;;6.41;58.25;98558.66;6362770;28;20204;-72
2021/10/22 08:01:18;;;;;;;1.83;0.70;;;;;;;6.43;57.94;98567.34;6366346;28;20192;-72
2021/10/22 08:04:24;;;;;;;0.60;0.60;;;;;;;6.50;58.05;98563.41;6365995;28;20182;-72
2021/10/22 08:07:29;;;;;;;0.60;0.60;;;;;;;6.47;58.78;98563.09;6366888;28;20209;-72
2021/10/22 08:10:34;;;;;;;1.80;0.57;;;;;;;6.63;57.51;98573.91;6365970;28;20516;-73
2021/10/22 08:13:38;;;;;;;0.70;0.70;;;;;;;6.63;59.16;98578.50;6367095;28;20189;-73
2021/10/22 08:16:45;;;;;;;0.67;0.67;;;;;;;6.57;58.81;98571.38;6366268;28;20236;-73
2021/10/22 08:19:54;;;;;;;1.10;0.80;;;;;;;6.71;56.59;98575.38;6365572;28;20185;-73
2021/10/22 08:22:59;;;;;;;0.70;0.70;;;;;;;6.69;56.97;98566.69;6366217;28;20190;-73
2021/10/22 08:26:03;;;;;;;2.23;0.80;;;;;;;6.67;56.66;98585.09;6365512;28;20412;-72
2021/10/22 08:29:07;;;;;;;0.70;0.70;;;;;;;6.66;55.66;98572.59;6366518;28;20185;-72
2021/10/22 08:32:12;;;;;;;0.50;0.50;;;;;;;6.71;56.38;98580.81;6366493;28;20220;-72
2021/10/22 08:35:19;;;;;;;0.83;0.60;;;;;;;6.74;55.91;98580.31;6366379;28;20189;-72
2021/10/22 08:38:23;;;;;;;0.70;0.70;;;;;;;6.85;55.99;98584.84;6365113;28;20469;-72
2021/10/22 08:41:28;;;;;;;1.40;0.60;;;;;;;6.82;56.07;98588.88;6366084;28;20193;-72
2021/10/22 08:44:32;;;;;;;0.83;0.83;;;;;;;6.73;55.01;98589.50;6366248;28;20261;-72
2021/10/22 08:47:37;;;;;;;0.60;0.60;;;;;;;6.85;55.76;98592.97;6364673;28;20524;-72
2021/10/22 08:50:42;;;;;;;0.50;0.50;;;;;;;6.83;56.18;98603.25;6365686;28;20258;-72
2021/10/22 08:53:48;;;;;;;0.60;0.60;;;;;;;6.76;56.53;98616.13;6365036;28;20186;-72
2021/10/22 08:56:52;;;;;;;0.53;0.53;;;;;;;6.88;55.70;98625.00;6365513;28;20190;-72
2021/10/22 08:59:58;;;;;;;0.60;0.60;;;;;;;6.88;56.87;98614.16;6364590;28;20474;-72
2021/10/22 09:03:09;;;;;;;0.50;0.50;;;;;;;6.96;55.26;98627.28;6365465;28;20182;-72
2021/10/22 09:06:16;;;;;;;0.60;0.60;;;;;;;7.06;55.81;98624.72;6365744;28;20185;-73
2021/10/22 09:09:21;;;;;;;0.77;0.60;;;;;;;7.09;55.45;98626.94;6364525;28;20213;-72
2021/10/22 09:12:42;;;;;;;0.77;0.77;;;;;;;7.11;54.51;98635.69;6364789;28;20185;-73
2021/10/22 09:15:47;;;;;;;0.50;0.50;;;;;;;7.14;54.53;98623.53;6364104;28;20189;-73
2021/10/22 09:18:52;;;;;;;0.70;0.70;;;;;;;7.17;54.41;98645.53;6359441;28;20304;-73
2021/10/22 09:22:13;;;;;;;0.63;0.63;;;;;;;7.17;54.25;98661.78;6365146;28;20265;-73
2021/10/22 09:25:23;;;;;;;0.93;0.70;;;;;;;7.15;54.62;98655.78;6364414;28;20189;-73
2021/10/22 09:28:28;;;;;;;0.80;0.80;;;;;;;7.21;55.00;98660.25;6365097;28;20286;-74
2021/10/22 09:31:32;;;;;;;0.60;0.60;;;;;;;7.17;53.45;98663.66;6364901;28;20220;-74
2021/10/22 09:34:38;;;;;;;1.00;0.80;;;;;;;7.25;54.76;98657.84;6365024;28;20238;-74
2021/10/22 09:37:43;;;;;;;0.60;0.60;;;;;;;7.25;54.87;98663.25;6365100;28;20217;-72
2021/10/22 09:40:49;;;;;;;0.60;0.60;;;;;;;7.19;53.55;98656.94;6364569;28;20189;-73
2021/10/22 09:43:53;;;;;;;0.50;0.50;;;;;;;7.24;53.67;98657.00;6364564;28;20182;-72
2021/10/22 09:47:14;;;;;;;0.60;0.60;;;;;;;7.15;53.28;98653.09;6364645;28;20285;-72
2021/10/22 09:50:25;;;;;;;0.73;0.70;;;;;;;7.20;52.57;98666.72;6364945;28;20259;-73
2021/10/22 09:53:37;;;;;;;0.83;0.63;;;;;;;7.29;52.68;98662.50;6364020;28;20302;-72
2021/10/22 09:56:51;;;;;;;0.67;0.67;;;;;;;7.28;51.89;98663.59;6364467;28;20221;-73
2021/10/22 10:00:03;;;;;;;0.60;0.60;;;;;;;7.33;53.47;98665.56;6363951;28;20186;-72
2021/10/22 10:03:15;;;;;;;1.97;0.60;;;;;;;7.31;54.18;98671.25;6363495;28;20186;-72
2021/10/22 10:06:19;;;;;;;0.60;0.60;;;;;;;7.32;52.95;98680.19;6363747;28;20214;-72
2021/10/22 10:09:27;;;;;;;0.60;0.60;;;;;;;7.38;54.17;98682.75;6362666;28;20240;-73
2021/10/22 10:12:34;;;;;;;0.50;0.50;;;;;;;7.33;52.31;98677.22;6363650;28;20259;-73
2021/10/22 10:15:38;;;;;;;0.60;0.60;;;;;;;7.43;52.85;98688.22;6364099;28;20189;-72
2021/10/22 10:18:46;;;;;;;1.47;0.77;;;;;;;7.50;52.41;98694.31;6363361;28;20238;-73
2021/10/22 10:21:53;;;;;;;2.73;0.90;;;;;;;7.43;52.15;98685.53;6362069;28;20558;-73
2021/10/22 10:25:01;;;;;;;0.90;0.90;;;;;;;7.48;52.42;98707.31;6363644;28;20330;-73
2021/10/22 10:28:05;;;;;;;0.70;0.70;;;;;;;7.61;52.86;98686.31;6363685;28;20209;-73
2021/10/22 10:31:33;;;;;;;1.20;0.70;;;;;;;7.67;52.73;98705.16;6362453;28;20332;-73
2021/10/22 10:34:51;;;;;;;0.87;0.87;;;;;;;7.66;51.99;98697.22;6362624;28;20345;-73
2021/10/22 10:37:56;;;;;;;0.60;0.60;;;;;;;7.68;52.68;98695.13;6363705;28;20255;-73
2021/10/22 10:44:36;;;;;;;0.63;0.63;;;;;;;7.69;52.81;98713.03;6359028;27;20803;-72
2021/10/22 10:47:50;;;;;;;0.60;0.60;;;;;;;7.70;52.98;98703.81;6359491;28;20190;-73
2021/10/22 10:50:56;;;;;;;0.60;0.60;;;;;;;7.82;52.40;98713.50;6358169;28;20204;-72
2021/10/22 10:54:05;;;;;;;0.60;0.60;;;;;;;7.85;51.86;98707.56;6358105;28;20194;-73
2021/10/22 10:57:25;;;;;;;0.60;0.60;;;;;;;7.79;52.27;98705.03;6357963;28;20347;-73
2021/10/22 11:00:34;;;;;;;0.60;0.60;;;;;;;7.74;51.20;98704.94;6357173;28;20560;-73
2021/10/22 11:03:45;;;;;;;0.60;0.60;;;;;;;7.82;50.33;98718.09;6359217;28;20214;-72
2021/10/22 11:06:52;;;;;;;0.60;0.60;;;;;;;7.90;50.67;98723.09;6358025;28;20183;-73
2021/10/22 11:09:57;;;;;;;0.60;0.60;;;;;;;7.84;50.08;98713.25;6359686;28;20183;-73
2021/10/22 11:13:23;;;;;;;0.70;0.70;;;;;;;7.90;49.54;98714.97;6359643;28;20255;-73
2021/10/22 11:16:35;;;;;;;1.40;0.70;;;;;;;7.99;50.70;98721.59;6355606;28;20202;-73
2021/10/22 11:19:44;;;;;;;0.60;0.60;;;;;;;8.00;49.91;98725.97;6357489;28;20432;-73
2021/10/22 11:22:51;;;;;;;1.13;0.70;;;;;;;8.12;50.02;98718.50;6357332;28;20533;-73
2021/10/22 11:25:56;;;;;;;0.70;0.70;;;;;;;7.91;49.66;98730.97;6358151;28;20228;-72
2021/10/22 11:29:13;;;;;;;0.67;0.67;;;;;;;8.07;50.44;98737.44;6357347;28;20190;-73
2021/10/22 11:32:20;;;;;;;0.60;0.60;;;;;;;8.16;50.73;98741.38;6358282;28;20190;-73
2021/10/22 11:35:28;;;;;;;0.57;0.57;;;;;;;8.16;50.33;98746.81;6357201;28;20426;-74
2021/10/22 11:38:32;;;;;;;0.70;0.70;;;;;;;8.19;49.20;98749.03;6358519;28;20182;-73
2021/10/22 11:41:37;;;;;;;0.70;0.70;;;;;;;8.15;49.00;98753.31;6357613;28;20246;-74
2021/10/22 11:44:45;;;;;;;0.63;0.63;;;;;;;8.27;49.38;98764.09;6356864;28;20214;-73
2021/10/22 11:47:55;;;;;;;3.40;0.98;;;;;;;8.22;49.06;98753.94;6356918;28;20496;-74
2021/10/22 11:51:00;;;;;;;1.42;0.90;;;;;;;8.27;49.78;98759.47;6356738;28;20221;-73
2021/10/22 11:54:05;;;;;;;0.57;0.57;;;;;;;8.34;49.12;98768.28;6349810;28;20365;-74
2021/10/22 11:57:14;;;;;;;0.77;0.77;;;;;;;8.28;49.67;98766.56;6340817;28;20190;-74
2021/10/22 12:00:19;;;;;;;0.60;0.60;;;;;;;8.36;48.88;98774.28;6340976;28;20183;-74
2021/10/22 12:03:28;;;;;;;1.80;0.55;;;;;;;8.34;48.16;98770.16;6339591;28;20575;-73
2021/10/22 12:06:32;;;;;;;3.40;0.75;;;;;;;8.40;48.36;98780.00;6340069;28;20183;-73
2021/10/22 12:09:38;;;;;;;0.63;0.63;;;;;;;8.36;48.46;98784.31;6340727;28;20186;-73
2021/10/22 12:12:45;;;;;;;0.95;0.95;;;;;;;8.40;47.80;98786.25;6340809;28;20222;-73
2021/10/22 12:15:49;;;;;;;0.73;0.73;;;;;;;8.45;49.56;98783.63;6339329;28;20411;-73
2021/10/22 12:18:58;;;;;;;0.68;0.68;;;;;;;8.40;49.96;98791.69;6340413;28;20224;-73
2021/10/22 12:22:03;;;;;;;0.73;0.73;;;;;;;8.48;49.99;98788.53;6340516;28;20186;-73
2021/10/22 12:25:15;;;;;;;15.20;0.90;;;;;;;8.45;48.81;98794.47;6340541;28;20217;-73
2021/10/22 12:28:20;;;;;;;0.60;0.60;;;;;;;8.50;47.83;98791.81;6340240;28;20246;-73
2021/10/22 12:31:31;;;;;;;0.80;0.80;;;;;;;8.40;49.07;98796.31;6340312;28;20183;-73
2021/10/22 12:34:37;;;;;;;0.75;0.75;;;;;;;8.40;48.54;98818.88;6340041;28;20222;-73
2021/10/22 12:37:42;;;;;;;1.35;0.70;;;;;;;8.45;48.95;98810.78;6340166;28;20183;-73
2021/10/22 12:40:49;;;;;;;1.00;1.00;;;;;;;8.43;47.96;98823.81;6339833;28;20187;-73
2021/10/22 12:44:12;;;;;;;1.50;0.60;;;;;;;8.51;47.95;98817.13;6340454;28;20314;-75
2021/10/22 12:47:16;;;;;;;0.80;0.80;;;;;;;8.54;48.46;98812.00;6339768;28;20183;-74
2021/10/22 12:50:26;;;;;;;1.00;0.73;;;;;;;8.54;48.59;98812.00;6339732;28;20214;-74
2021/10/22 12:53:35;;;;;;;0.88;0.88;;;;;;;8.54;47.89;98820.16;6339602;28;20262;-72
2021/10/22 12:56:39;;;;;;;0.60;0.60;;;;;;;8.48;46.98;98815.72;6339317;28;20463;-72
2021/10/22 12:59:43;;;;;;;2.95;0.65;;;;;;;8.46;47.82;98817.88;6338318;28;20183;-73
2021/10/22 13:02:47;;;;;;;1.25;0.80;;;;;;;8.44;47.86;98827.34;6339371;28;20189;-73
2021/10/22 13:05:53;;;;;;;0.60;0.60;;;;;;;8.49;47.26;98828.25;6337568;28;20206;-72
2021/10/22 13:09:18;;;;;;;0.70;0.70;;;;;;;8.62;46.99;98827.06;6339225;28;20183;-72
2021/10/22 13:22:25;;;;;;;0.75;0.73;;;;;;;8.66;48.88;98850.75;6337650;28;20252;-72
2021/10/22 13:25:29;;;;;;;0.98;0.63;;;;;;;8.58;49.20;98848.47;6337506;28;20228;-73
2021/10/22 13:28:34;;;;;;;0.88;0.70;;;;;;;8.66;48.13;98866.22;6338528;28;20221;-73
2021/10/22 13:31:44;;;;;;;0.60;0.60;;;;;;;8.76;48.54;98878.06;6338364;28;20183;-73
2021/10/22 13:34:49;;;;;;;0.43;0.43;;;;;;;8.67;49.54;98874.16;6338457;28;20222;-73
2021/10/22 13:37:55;;;;;;;11.70;0.90;;;;;;;8.65;50.03;98887.16;6338246;28;20258;-73
2021/10/22 13:41:01;;;;;;;0.65;0.65;;;;;;;8.69;50.87;98898.34;6362415;28;20182;-74
2021/10/22 13:44:06;;;;;;;0.60;0.60;;;;;;;8.68;49.70;98883.94;6362945;28;20240;-73
2021/10/22 13:47:10;;;;;;;1.77;0.70;;;;;;;8.60;50.28;98883.56;6362349;28;20182;-72
2021/10/22 13:50:14;;;;;;;0.80;0.80;;;;;;;8.55;50.64;98892.44;6363551;28;20213;-72
2021/10/22 13:53:22;;;;;;;0.45;0.45;;;;;;;8.52;50.29;98892.97;6362172;28;20182;-71
2021/10/22 13:56:26;;;;;;;0.50;0.50;;;;;;;8.48;50.37;98896.41;6361997;28;20466;-72
2021/10/22 13:59:34;;;;;;;0.60;0.60;;;;;;;8.67;49.27;98909.50;6363259;28;20189;-72
2021/10/22 14:02:38;;;;;;;0.63;0.63;;;;;;;8.67;49.42;98916.81;6363337;28;20259;-73
2021/10/22 14:05:43;;;;;;;0.88;0.88;;;;;;;8.58;50.55;98921.84;6362535;28;20255;-73
2021/10/22 14:08:49;;;;;;;0.70;0.70;;;;;;;8.60;50.69;98910.75;6363265;28;20183;-73
2021/10/22 14:11:55;;;;;;;4.75;0.60;;;;;;;8.65;50.94;98925.19;6361716;28;20243;-73
2021/10/22 14:15:09;;;;;;;0.63;0.63;;;;;;;8.69;50.52;98920.09;6363040;28;20186;-73
2021/10/22 14:25:09;;;;;;;1.10;0.80;;;;;;;8.50;50.81;98935.84;6362719;28;20210;-72
2021/10/22 14:31:39;;;;;;;0.60;0.60;;;;;;;8.54;51.15;98947.91;6361641;28;20186;-73
2021/10/22 14:34:43;;;;;;;0.60;0.60;;;;;;;8.59;49.78;98942.53;6361397;28;20437;-73
2021/10/22 14:37:47;;;;;;;1.67;0.80;;;;;;;8.56;50.27;98953.91;6362855;28;20182;-72
2021/10/22 14:40:55;;;;;;;0.70;0.70;;;;;;;8.29;51.65;98963.81;6361383;28;20465;-74
2021/10/22 14:44:02;;;;;;;0.75;0.75;;;;;;;8.35;52.18;98967.41;6362840;28;20342;-73
2021/10/22 14:47:14;;;;;;;0.60;0.60;;;;;;;8.39;54.31;98969.41;6362787;28;20189;-74
2021/10/22 14:50:20;;;;;;;2.13;0.80;;;;;;;8.32;54.10;98979.59;6361448;28;20530;-73
2021/10/22 14:53:34;;;;;;;3.13;0.70;;;;;;;8.41;52.05;98978.13;6362265;28;20213;-73
2021/10/22 14:56:40;;;;;;;0.77;0.77;;;;;;;8.45;52.35;98973.84;6361453;28;20193;-72
2021/10/22 14:59:45;;;;;;;79.28;35.38;;;;;;;8.46;52.09;98986.34;6362599;28;20183;-73
2021/10/22 15:02:52;;;;;;;3.30;1.50;;;;;;;8.44;51.47;98993.94;6361741;28;20266;-74
2021/10/22 15:05:57;;;;;;;1.00;1.00;;;;;;;8.46;51.05;99002.66;6362226;28;20206;-72
2021/10/22 15:09:02;;;;;;;0.80;0.80;;;;;;;8.46;51.45;99001.84;6361153;28;20519;-73
2021/10/22 15:12:09;;;;;;;0.65;0.65;;;;;;;8.50;50.86;99016.59;6362381;28;20182;-72
2021/10/22 15:15:15;;;;;;;0.90;0.77;;;;;;;8.58;51.83;99019.69;6361061;28;20222;-72
2021/10/22 15:18:20;;;;;;;7.70;5.32;;;;;;;8.54;52.93;99010.41;6362532;28;20183;-72